Time;durP1;ratioP1;P1;durP2;ratioP2;P2;SDS_P1;SDS_P2;PMS_P1;PMS_P2;Temp;Humidity;BMP_temperature;BMP_pressure;BME280_temperature;BME280_humidity;BME280_pressure;Samples;Min_cycle;Max_cycle;Signal;HPM_P1;HPM_P2
2023/04/08 00:00:52;;;;;;;1.37;0.80;;;24.20;42.60;;;;;;5101113;27;87127;-66
2023/04/08 00:03:20;;;;;;;1.53;1.20;;;24.20;42.60;;;;;;5100982;27;87114;-66
2023/04/08 00:05:49;;;;;;;1.30;1.00;;;24.10;42.60;;;;;;5101351;27;89235;-66
2023/04/08 00:08:17;;;;;;;0.97;0.83;;;24.10;42.60;;;;;;5106728;27;87738;-65
2023/04/08 00:10:45;;;;;;;1.23;1.13;;;24.10;42.60;;;;;;5112639;27;87050;-66
2023/04/08 00:13:14;;;;;;;2.67;1.00;;;24.00;42.60;;;;;;5111767;27;87059;-66
2023/04/08 00:15:42;;;;;;;2.13;1.20;;;24.00;42.60;;;;;;5110299;27;89685;-66
2023/04/08 00:18:10;;;;;;;1.63;1.33;;;24.00;42.70;;;;;;5083289;27;89866;-66
2023/04/08 00:20:38;;;;;;;1.53;1.23;;;23.90;42.60;;;;;;5094644;27;87064;-65
2023/04/08 00:23:06;;;;;;;3.17;1.30;;;23.90;42.60;;;;;;5115398;27;87511;-66
2023/04/08 00:25:34;;;;;;;4.07;1.20;;;23.90;42.60;;;;;;5107573;27;89224;-66
2023/04/08 00:28:02;;;;;;;2.40;1.60;;;23.80;42.60;;;;;;5110261;27;87796;-66
2023/04/08 00:30:32;;;;;;;2.47;1.20;;;23.80;42.60;;;;;;5097257;27;87020;-65
2023/04/08 00:33:00;;;;;;;1.97;0.90;;;23.80;42.60;;;;;;5109711;27;86205;-65
2023/04/08 00:35:28;;;;;;;2.10;1.17;;;23.80;42.60;;;;;;5119554;27;89146;-66
2023/04/08 00:37:56;;;;;;;3.23;1.43;;;23.80;42.60;;;;;;5106398;27;88570;-66
2023/04/08 00:40:24;;;;;;;2.37;1.30;;;23.80;42.60;;;;;;5120036;27;88701;-65
2023/04/08 00:42:52;;;;;;;1.83;1.30;;;23.70;42.60;;;;;;5107449;27;87009;-66
2023/04/08 00:45:20;;;;;;;1.47;0.90;;;23.70;42.60;;;;;;5114903;27;88955;-66
2023/04/08 00:47:51;;;;;;;2.03;1.00;;;23.70;42.60;;;;;;5088759;27;88801;-66
2023/04/08 00:50:20;;;;;;;3.27;1.40;;;23.70;42.70;;;;;;5094473;27;86915;-66
2023/04/08 00:52:48;;;;;;;3.30;1.53;;;23.70;42.60;;;;;;5122449;27;86931;-66
2023/04/08 00:55:15;;;;;;;1.83;1.10;;;23.70;42.60;;;;;;5106026;27;88850;-66
2023/04/08 00:57:43;;;;;;;3.20;1.60;;;23.70;42.70;;;;;;5126125;27;88269;-66
2023/04/08 01:00:13;;;;;;;2.93;1.40;;;23.60;42.60;;;;;;5126783;27;87028;-66
2023/04/08 01:02:45;;;;;;;1.87;1.43;;;23.60;42.60;;;;;;5110226;27;87047;-66
2023/04/08 01:05:15;;;;;;;5.00;2.03;;;23.60;42.60;;;;;;5125067;27;90064;-66
2023/04/08 01:07:45;;;;;;;1.80;1.20;;;23.60;42.60;;;;;;5109000;27;89593;-66
2023/04/08 01:10:15;;;;;;;1.87;1.00;;;23.60;42.60;;;;;;5103758;27;87088;-67
2023/04/08 01:12:44;;;;;;;1.43;1.30;;;23.60;42.60;;;;;;5125865;27;86823;-67
2023/04/08 01:15:12;;;;;;;2.03;1.33;;;23.50;42.60;;;;;;5117900;27;89145;-67
2023/04/08 01:17:40;;;;;;;2.80;1.20;;;23.50;43.30;;;;;;5105469;27;89111;-67
2023/04/08 01:20:08;;;;;;;1.73;1.13;;;23.50;42.60;;;;;;5109218;27;87109;-66
2023/04/08 01:23:02;;;;;;;1.60;1.20;;;23.50;42.60;;;;;;5109915;27;86020;-66
2023/04/08 01:25:31;;;;;;;3.30;1.43;;;23.40;42.60;;;;;;5083500;27;89027;-66
2023/04/08 01:28:03;;;;;;;1.77;1.43;;;23.40;42.60;;;;;;5120551;27;88554;-66
2023/04/08 01:30:31;;;;;;;2.73;1.53;;;23.40;42.60;;;;;;5111231;27;87968;-66
2023/04/08 01:32:59;;;;;;;1.40;1.30;;;23.40;42.60;;;;;;5104456;27;86857;-67
2023/04/08 01:35:27;;;;;;;3.03;1.40;;;23.40;42.60;;;;;;5105476;27;89019;-66
2023/04/08 01:37:55;;;;;;;1.43;1.33;;;23.40;42.60;;;;;;5104166;27;88948;-66
2023/04/08 01:40:23;;;;;;;2.13;1.50;;;23.40;42.60;;;;;;5105247;27;87018;-66
2023/04/08 01:42:54;;;;;;;1.83;1.50;;;23.40;42.60;;;;;;5097122;27;87021;-66
2023/04/08 01:45:23;;;;;;;1.37;1.00;;;23.30;42.60;;;;;;5099021;27;89259;-67
2023/04/08 01:47:51;;;;;;;1.30;1.10;;;23.30;42.60;;;;;;5108116;27;88904;-66
2023/04/08 01:50:19;;;;;;;2.47;1.30;;;23.30;42.60;;;;;;5094202;27;87039;-66
2023/04/08 01:52:48;;;;;;;0.93;0.93;;;23.30;43.30;;;;;;5090596;27;86977;-66
2023/04/08 01:55:16;;;;;;;1.30;1.20;;;23.30;42.60;;;;;;5104273;27;89018;-66
2023/04/08 01:57:45;;;;;;;1.47;1.10;;;23.30;42.70;;;;;;5104812;27;89850;-66
2023/04/08 02:00:15;;;;;;;4.03;1.40;;;23.30;42.70;;;;;;5117231;27;87123;-66
2023/04/08 02:02:44;;;;;;;1.30;1.20;;;23.30;42.70;;;;;;5123293;27;87042;-66
2023/04/08 02:05:12;;;;;;;3.57;1.30;;;23.30;42.70;;;;;;5120876;27;89284;-66
2023/04/08 02:07:40;;;;;;;2.53;1.27;;;23.20;42.60;;;;;;5107644;27;87733;-66
2023/04/08 02:10:09;;;;;;;2.30;1.60;;;23.20;42.60;;;;;;5104559;27;86720;-66
2023/04/08 02:12:37;;;;;;;2.53;1.67;;;23.20;42.60;;;;;;5104789;27;86177;-66
2023/04/08 02:15:05;;;;;;;1.63;1.33;;;23.20;42.60;;;;;;5103777;27;89082;-67
2023/04/08 02:17:36;;;;;;;2.73;1.73;;;23.20;42.60;;;;;;5104259;27;88977;-69
2023/04/08 02:20:06;;;;;;;1.70;1.17;;;23.20;42.60;;;;;;5104037;27;87883;-70
2023/04/08 02:22:38;;;;;;;1.67;1.27;;;23.20;42.70;;;;;;5104349;27;86990;-65
2023/04/08 02:25:15;;;;;;;2.80;1.93;;;23.20;42.80;;;;;;5103881;27;89384;-65
2023/04/08 02:27:45;;;;;;;1.87;1.20;;;23.20;42.80;;;;;;5104063;27;89036;-65
2023/04/08 02:30:13;;;;;;;2.27;1.17;;;23.20;42.80;;;;;;5104207;27;86982;-65
2023/04/08 02:32:41;;;;;;;1.53;1.43;;;23.20;42.80;;;;;;5103831;27;87000;-65
2023/04/08 02:35:10;;;;;;;1.63;1.10;;;23.10;43.40;;;;;;5104069;27;89136;-65
2023/04/08 02:37:38;;;;;;;3.70;1.57;;;23.10;42.80;;;;;;5104404;27;88835;-65
2023/04/08 02:40:22;;;;;;;1.83;1.57;;;23.10;42.80;;;;;;5104259;27;87108;-65
2023/04/08 02:42:50;;;;;;;2.37;1.17;;;23.10;42.90;;;;;;5103997;27;86846;-65
2023/04/08 02:45:19;;;;;;;1.10;0.87;;;23.10;42.90;;;;;;5103142;27;90047;-65
2023/04/08 02:47:47;;;;;;;1.53;1.30;;;23.10;42.90;;;;;;5104225;27;89783;-65
2023/04/08 02:50:16;;;;;;;3.83;1.27;;;23.10;42.90;;;;;;5104696;27;87003;-64
2023/04/08 02:52:44;;;;;;;1.83;1.40;;;23.10;42.90;;;;;;5104515;27;87129;-67
2023/04/08 02:55:12;;;;;;;4.33;1.23;;;23.00;42.90;;;;;;5103902;27;89058;-66
2023/04/08 02:57:41;;;;;;;2.47;1.40;;;23.00;43.50;;;;;;5103622;27;88692;-66
2023/04/08 03:00:10;;;;;;;1.50;1.00;;;23.00;42.90;;;;;;5103906;27;86954;-66
2023/04/08 03:02:38;;;;;;;3.40;1.33;;;23.00;42.90;;;;;;5104039;27;86304;-65
2023/04/08 03:05:07;;;;;;;1.33;1.10;;;23.00;42.90;;;;;;5103725;27;89314;-66
2023/04/08 03:07:37;;;;;;;4.13;1.00;;;23.00;42.90;;;;;;5103132;27;89158;-67
2023/04/08 03:10:06;;;;;;;2.10;1.30;;;23.00;42.90;;;;;;5102665;27;87971;-67
2023/04/08 03:12:34;;;;;;;1.73;0.90;;;22.90;42.80;;;;;;5102315;27;86960;-67
2023/04/08 03:15:02;;;;;;;2.83;1.30;;;22.90;42.80;;;;;;5103223;27;89139;-65
2023/04/08 03:17:32;;;;;;;0.90;0.83;;;22.90;42.90;;;;;;5103500;27;88920;-67
2023/04/08 03:20:00;;;;;;;2.13;1.20;;;22.90;42.90;;;;;;5103605;27;86706;-67
2023/04/08 03:22:28;;;;;;;2.20;0.97;;;22.90;42.90;;;;;;5103354;27;87083;-67
2023/04/08 03:24:58;;;;;;;1.80;1.07;;;22.90;42.90;;;;;;5103199;27;89150;-67
2023/04/08 03:27:26;;;;;;;1.30;1.20;;;22.90;42.90;;;;;;5103852;27;87683;-67
2023/04/08 03:29:54;;;;;;;1.33;1.17;;;22.90;42.90;;;;;;5103144;27;87020;-64
2023/04/08 03:32:22;;;;;;;1.00;0.87;;;22.90;42.90;;;;;;5103512;27;87034;-67
2023/04/08 03:34:50;;;;;;;1.00;1.00;;;22.90;42.90;;;;;;5102276;27;90007;-65
2023/04/08 03:37:18;;;;;;;1.90;1.20;;;22.80;42.90;;;;;;5103021;27;89737;-67
2023/04/08 03:39:46;;;;;;;3.07;1.33;;;22.90;42.90;;;;;;5103623;27;86984;-67
2023/04/08 03:42:16;;;;;;;2.40;1.30;;;22.90;42.90;;;;;;5103023;27;87025;-64
2023/04/08 03:44:44;;;;;;;2.30;1.00;;;22.80;42.90;;;;;;5102823;27;89187;-64
2023/04/08 03:47:11;;;;;;;1.37;1.27;;;22.80;42.90;;;;;;5103061;27;88897;-67
2023/04/08 03:49:39;;;;;;;2.17;1.30;;;22.80;42.90;;;;;;5103585;27;86770;-67
2023/04/08 03:52:07;;;;;;;0.97;0.90;;;22.80;42.90;;;;;;5103663;27;86285;-66
2023/04/08 03:54:35;;;;;;;1.37;1.20;;;22.80;42.90;;;;;;5102712;27;89161;-66
2023/04/08 03:57:03;;;;;;;2.10;1.00;;;22.80;42.90;;;;;;5103122;27;88614;-66
2023/04/08 03:59:35;;;;;;;1.17;1.07;;;22.80;42.90;;;;;;5102970;27;87709;-67
2023/04/08 04:02:03;;;;;;;1.07;1.03;;;22.70;42.80;;;;;;5103291;27;86927;-66
2023/04/08 04:04:31;;;;;;;2.30;1.00;;;22.80;42.90;;;;;;5102494;27;89089;-67
2023/04/08 04:06:59;;;;;;;1.17;1.13;;;22.70;42.80;;;;;;5103103;27;87861;-67
2023/04/08 04:09:27;;;;;;;1.27;0.90;;;22.70;42.80;;;;;;5103236;27;87419;-66
2023/04/08 04:11:55;;;;;;;0.93;0.90;;;22.70;42.80;;;;;;5103197;27;86921;-66
2023/04/08 04:14:23;;;;;;;1.10;1.00;;;22.70;42.80;;;;;;5103096;27;88882;-66
2023/04/08 04:16:52;;;;;;;1.33;1.00;;;22.70;42.90;;;;;;5102872;27;88852;-66
2023/04/08 04:19:20;;;;;;;1.80;1.00;;;22.70;42.90;;;;;;5102787;27;87003;-66
2023/04/08 04:21:48;;;;;;;1.57;0.90;;;22.70;42.90;;;;;;5103357;27;86820;-66
2023/04/08 04:24:16;;;;;;;2.10;1.37;;;22.60;42.80;;;;;;5104634;27;90529;-66
2023/04/08 04:26:44;;;;;;;1.27;1.10;;;22.60;42.80;;;;;;5106179;27;89805;-66
2023/04/08 04:29:12;;;;;;;2.10;1.20;;;22.70;42.90;;;;;;5105807;27;86958;-67
2023/04/08 04:31:40;;;;;;;2.00;1.70;;;22.60;42.90;;;;;;5106290;27;87022;-67
2023/04/08 04:34:10;;;;;;;2.13;1.30;;;22.60;42.80;;;;;;5105803;27;88192;-66
2023/04/08 04:36:38;;;;;;;1.00;0.90;;;22.60;42.90;;;;;;5105735;27;87522;-66
2023/04/08 04:39:06;;;;;;;1.03;0.80;;;22.60;42.90;;;;;;5105891;27;86893;-66
2023/04/08 04:41:37;;;;;;;1.10;0.90;;;22.60;42.90;;;;;;5106659;27;86309;-66
2023/04/08 04:44:05;;;;;;;4.17;1.63;;;22.60;42.90;;;;;;5106833;27;88929;-66
2023/04/08 04:46:33;;;;;;;1.23;0.90;;;22.60;42.90;;;;;;5105946;27;88910;-66
2023/04/08 04:49:01;;;;;;;1.30;1.20;;;22.60;42.90;;;;;;5106074;27;87980;-66
2023/04/08 04:51:32;;;;;;;1.63;1.13;;;22.60;42.90;;;;;;5106181;27;87025;-66
2023/04/08 04:54:00;;;;;;;2.13;1.00;;;22.50;42.80;;;;;;5106124;27;88816;-66
2023/04/08 04:56:28;;;;;;;1.07;0.97;;;22.60;42.90;;;;;;5105585;27;88666;-66
2023/04/08 04:58:56;;;;;;;2.67;1.30;;;22.50;42.90;;;;;;5105939;27;87017;-66
2023/04/08 05:01:24;;;;;;;1.03;0.90;;;22.50;42.80;;;;;;5106141;27;87211;-66
2023/04/08 05:03:52;;;;;;;2.60;1.20;;;22.60;43.00;;;;;;5105758;27;89019;-69
2023/04/08 05:06:20;;;;;;;2.23;0.97;;;22.50;42.80;;;;;;5105858;27;88839;-69
2023/04/08 05:08:50;;;;;;;1.50;0.90;;;22.50;43.50;;;;;;5105533;27;87077;-68
2023/04/08 05:11:20;;;;;;;3.97;1.20;;;22.50;42.90;;;;;;5111593;27;87066;-70
2023/04/08 05:13:48;;;;;;;1.37;0.83;;;22.50;42.90;;;;;;5107697;27;89881;-70
2023/04/08 05:16:16;;;;;;;1.53;1.43;;;22.50;43.00;;;;;;5108663;27;90095;-70
2023/04/08 05:18:44;;;;;;;1.20;1.10;;;22.50;43.00;;;;;;5107185;27;87432;-70
2023/04/08 05:21:12;;;;;;;2.30;1.47;;;22.50;43.10;;;;;;5113568;27;87002;-70
2023/04/08 05:23:40;;;;;;;6.03;1.10;;;22.50;43.80;;;;;;5123790;27;90588;-61
2023/04/08 05:26:10;;;;;;;1.87;1.27;;;22.50;43.20;;;;;;5118916;27;87589;-61
2023/04/08 05:28:38;;;;;;;1.77;1.17;;;22.50;43.30;;;;;;5107804;27;87013;-61
2023/04/08 05:31:06;;;;;;;2.83;1.37;;;22.50;43.30;;;;;;5114330;27;86153;-61
2023/04/08 05:33:34;;;;;;;1.80;1.10;;;22.50;43.40;;;;;;5105406;27;88580;-61
2023/04/08 05:36:02;;;;;;;2.60;1.20;;;22.50;43.50;;;;;;5103777;27;88867;-61
2023/04/08 05:38:30;;;;;;;2.33;1.10;;;22.50;43.50;;;;;;5104375;27;88008;-61
2023/04/08 05:40:58;;;;;;;2.20;1.40;;;22.60;43.70;;;;;;5104901;27;86796;-62
2023/04/08 05:43:27;;;;;;;1.50;1.20;;;22.60;43.80;;;;;;5104609;27;88956;-63
2023/04/08 05:45:55;;;;;;;3.13;1.03;;;22.60;43.80;;;;;;5104744;27;88579;-63
2023/04/08 05:48:23;;;;;;;2.63;1.23;;;22.60;43.80;;;;;;5104991;27;87086;-63
2023/04/08 05:50:51;;;;;;;1.97;1.50;;;22.60;43.80;;;;;;5116058;27;87044;-63
2023/04/08 05:53:18;;;;;;;1.60;1.03;;;22.60;43.80;;;;;;5124963;27;90105;-63
2023/04/08 05:55:46;;;;;;;2.00;1.30;;;22.60;43.90;;;;;;5125350;27;88915;-63
2023/04/08 05:58:14;;;;;;;1.90;1.60;;;22.60;43.90;;;;;;5125129;27;87009;-63
2023/04/08 06:00:44;;;;;;;1.07;1.00;;;22.60;43.90;;;;;;5118237;27;86943;-61
2023/04/08 06:03:12;;;;;;;2.07;1.00;;;22.60;43.90;;;;;;5103469;27;90207;-63
2023/04/08 06:05:40;;;;;;;2.23;1.30;;;22.60;44.00;;;;;;5104125;27;89723;-63
2023/04/08 06:08:08;;;;;;;1.20;0.97;;;22.70;44.00;;;;;;5104765;27;87151;-61
2023/04/08 06:10:36;;;;;;;2.17;1.20;;;22.80;44.00;;;;;;5111426;27;87051;-63
2023/04/08 06:13:04;;;;;;;1.33;1.23;;;22.90;43.90;;;;;;5104527;27;88115;-61
2023/04/08 06:15:32;;;;;;;1.23;1.10;;;23.20;44.00;;;;;;5113092;27;87604;-61
2023/04/08 06:18:01;;;;;;;1.93;1.00;;;23.30;43.80;;;;;;5112063;27;86999;-64
2023/04/08 06:20:30;;;;;;;1.47;1.00;;;23.60;43.80;;;;;;5115992;27;86368;-61
2023/04/08 06:22:58;;;;;;;1.70;1.20;;;23.80;43.70;;;;;;5124455;27;89042;-62
2023/04/08 06:25:26;;;;;;;1.17;1.07;;;24.00;44.20;;;;;;5120428;27;88537;-61
2023/04/08 06:27:54;;;;;;;1.07;0.80;;;24.10;43.40;;;;;;5122159;27;87942;-61
2023/04/08 06:30:22;;;;;;;1.17;1.07;;;24.20;43.30;;;;;;5114827;27;87086;-63
2023/04/08 06:32:50;;;;;;;1.73;1.07;;;24.30;43.30;;;;;;5117878;27;88884;-61
2023/04/08 06:35:19;;;;;;;1.03;0.93;;;24.30;43.30;;;;;;5117349;27;88913;-61
2023/04/08 06:37:47;;;;;;;1.60;1.30;;;24.30;43.20;;;;;;5115997;27;87063;-61
2023/04/08 06:40:15;;;;;;;2.07;0.90;;;24.40;43.30;;;;;;5104140;27;87042;-61
2023/04/08 06:42:43;;;;;;;1.00;0.90;;;24.40;43.30;;;;;;5104856;27;89098;-59
2023/04/08 06:45:11;;;;;;;0.67;0.67;;;24.40;43.20;;;;;;5105603;27;87785;-61
2023/04/08 06:47:39;;;;;;;0.87;0.77;;;24.50;43.30;;;;;;5102688;27;87066;-62
2023/04/08 06:50:08;;;;;;;1.37;0.87;;;24.60;43.20;;;;;;5107683;27;87127;-62
2023/04/08 06:52:37;;;;;;;1.67;0.87;;;24.80;43.20;;;;;;5091714;27;90260;-62
2023/04/08 06:55:06;;;;;;;1.30;1.07;;;24.90;43.20;;;;;;5106644;27;89740;-61
2023/04/08 06:57:34;;;;;;;1.37;0.83;;;25.00;43.10;;;;;;5122874;27;87064;-61
2023/04/08 07:00:02;;;;;;;1.67;1.00;;;25.00;43.00;;;;;;5120781;27;87076;-61
2023/04/08 07:02:30;;;;;;;0.90;0.90;;;25.10;42.90;;;;;;5103472;27;89250;-61
2023/04/08 07:04:58;;;;;;;2.53;1.00;;;25.10;42.90;;;;;;5108917;27;87716;-61
2023/04/08 07:07:26;;;;;;;0.87;0.80;;;25.10;42.90;;;;;;5109873;27;87047;-61
2023/04/08 07:09:55;;;;;;;0.70;0.70;;;25.10;42.90;;;;;;5103927;27;86330;-61
2023/04/08 07:12:23;;;;;;;1.37;0.70;;;25.00;42.90;;;;;;5110396;27;89088;-62
2023/04/08 07:14:51;;;;;;;1.30;1.00;;;25.00;42.90;;;;;;5105208;27;92166;-62
2023/04/08 07:17:19;;;;;;;1.87;0.87;;;24.90;42.90;;;;;;5118214;27;88065;-62
2023/04/08 07:19:48;;;;;;;0.77;0.77;;;24.90;42.90;;;;;;5103649;27;87003;-62
2023/04/08 07:22:16;;;;;;;0.93;0.83;;;24.80;42.90;;;;;;5090664;27;87821;-61
2023/04/08 07:24:48;;;;;;;1.20;0.97;;;24.80;43.00;;;;;;5108229;27;89192;-62
2023/04/08 07:27:17;;;;;;;0.97;0.90;;;24.70;43.00;;;;;;5094060;27;87057;-61
2023/04/08 07:29:45;;;;;;;1.00;0.87;;;24.70;43.10;;;;;;5102384;27;87082;-62
2023/04/08 07:32:13;;;;;;;1.67;0.90;;;24.60;43.10;;;;;;5095445;27;89257;-62
2023/04/08 07:34:41;;;;;;;1.53;1.20;;;24.60;43.10;;;;;;5103170;27;88814;-61
2023/04/08 07:37:09;;;;;;;0.83;0.83;;;24.60;43.10;;;;;;5099707;27;87111;-62
2023/04/08 07:39:37;;;;;;;0.60;0.60;;;24.50;43.10;;;;;;5101155;27;86995;-65
2023/04/08 07:42:05;;;;;;;0.63;0.63;;;24.50;43.20;;;;;;5102064;27;90170;-61
2023/04/08 07:44:35;;;;;;;1.90;1.00;;;24.50;43.20;;;;;;5107130;27;89876;-60
2023/04/08 07:47:03;;;;;;;1.53;1.30;;;24.40;43.20;;;;;;5095577;27;87133;-60
2023/04/08 07:49:31;;;;;;;1.17;0.90;;;24.40;43.20;;;;;;5103408;27;87139;-62
2023/04/08 07:51:59;;;;;;;1.40;1.17;;;24.30;43.20;;;;;;5088335;27;89226;-61
2023/04/08 07:54:26;;;;;;;0.80;0.80;;;24.30;43.90;;;;;;5097809;27;89141;-61
2023/04/08 07:56:55;;;;;;;1.23;0.93;;;24.30;43.30;;;;;;5092606;27;86965;-62
2023/04/08 07:59:23;;;;;;;1.63;0.90;;;24.20;43.20;;;;;;5085525;27;86317;-61
2023/04/08 08:01:53;;;;;;;2.30;0.90;;;24.20;43.30;;;;;;5097643;27;89187;-61
2023/04/08 08:04:24;;;;;;;1.97;1.00;;;24.20;43.30;;;;;;5090969;27;88997;-61
2023/04/08 08:06:52;;;;;;;1.73;1.23;;;24.20;43.40;;;;;;5093969;27;87966;-61
2023/04/08 08:09:20;;;;;;;0.80;0.80;;;24.20;43.30;;;;;;5123431;27;86804;-61
2023/04/08 08:11:48;;;;;;;1.33;1.17;;;24.30;43.30;;;;;;5123701;27;88940;-62
2023/04/08 08:14:16;;;;;;;1.33;1.13;;;24.40;43.30;;;;;;5103263;27;88823;-62
2023/04/08 08:16:44;;;;;;;1.57;1.13;;;24.50;43.20;;;;;;5108222;27;88490;-62
2023/04/08 08:19:13;;;;;;;1.67;0.97;;;24.70;43.20;;;;;;5104019;27;87478;-62
2023/04/08 08:21:41;;;;;;;1.70;1.10;;;24.80;43.60;;;;;;5106164;27;89186;-62
2023/04/08 08:24:09;;;;;;;1.20;1.10;;;24.90;42.90;;;;;;5106478;27;87504;-61
2023/04/08 08:26:37;;;;;;;5.87;1.53;;;25.00;42.80;;;;;;5106134;27;86919;-62
2023/04/08 08:29:07;;;;;;;1.83;1.37;;;25.00;42.80;;;;;;5106020;27;87072;-61
2023/04/08 08:31:35;;;;;;;1.63;1.40;;;25.10;43.20;;;;;;5105301;27;90019;-61
2023/04/08 08:34:03;;;;;;;3.47;1.00;;;25.10;42.70;;;;;;5105278;27;89971;-61
2023/04/08 08:36:32;;;;;;;3.43;2.07;;;25.10;42.70;;;;;;5105443;27;87125;-61
2023/04/08 08:39:01;;;;;;;1.90;1.50;;;25.10;42.70;;;;;;5096904;27;87156;-61
2023/04/08 08:41:34;;;;;;;1.83;1.10;;;25.00;42.70;;;;;;5084411;27;89013;-61
2023/04/08 08:44:02;;;;;;;2.47;1.30;;;25.00;42.60;;;;;;5083666;27;88825;-62
2023/04/08 08:46:30;;;;;;;1.90;1.17;;;25.00;42.70;;;;;;5084362;27;87193;-62
2023/04/08 08:48:58;;;;;;;2.37;1.20;;;25.00;42.60;;;;;;5085631;27;86364;-62
2023/04/08 08:51:26;;;;;;;1.33;1.00;;;24.90;42.60;;;;;;5085111;27;89103;-62
2023/04/08 08:53:56;;;;;;;1.67;1.20;;;24.90;42.60;;;;;;5084790;27;89160;-62
2023/04/08 08:56:24;;;;;;;1.10;0.87;;;24.90;42.70;;;;;;5084689;27;88048;-62
2023/04/08 08:58:52;;;;;;;2.47;0.97;;;24.90;42.60;;;;;;5086101;27;87059;-61
2023/04/08 09:01:36;;;;;;;1.10;1.00;;;24.80;42.50;;;;;;5084861;27;88027;-61
2023/04/08 09:04:15;;;;;;;1.77;1.40;;;24.80;42.60;;;;;;5085127;27;87948;-61
2023/04/08 09:06:44;;;;;;;1.80;1.00;;;24.80;42.60;;;;;;5085089;27;86871;-61
2023/04/08 09:09:13;;;;;;;1.43;1.10;;;24.80;42.60;;;;;;5083808;27;87154;-61
2023/04/08 09:11:43;;;;;;;1.93;1.23;;;24.70;42.60;;;;;;5084273;27;88919;-61
2023/04/08 09:14:18;;;;;;;1.47;1.10;;;24.70;42.60;;;;;;5084816;27;89933;-62
2023/04/08 09:16:46;;;;;;;1.40;1.07;;;24.60;42.50;;;;;;5084107;27;87036;-62
2023/04/08 09:19:14;;;;;;;2.73;1.10;;;24.60;42.50;;;;;;5084567;27;86855;-62
2023/04/08 09:21:42;;;;;;;1.20;1.10;;;24.60;43.20;;;;;;5083896;27;90031;-62
2023/04/08 09:24:27;;;;;;;1.17;1.00;;;24.60;43.30;;;;;;5084609;27;88628;-64
2023/04/08 09:26:56;;;;;;;1.90;1.03;;;24.60;42.60;;;;;;5084545;27;87094;-63
2023/04/08 09:29:25;;;;;;;2.30;1.20;;;24.50;42.60;;;;;;5084042;27;86909;-64
2023/04/08 09:31:56;;;;;;;2.20;1.23;;;24.60;42.70;;;;;;5084166;27;89124;-64
2023/04/08 09:34:25;;;;;;;1.80;1.10;;;24.50;42.60;;;;;;5084109;27;88959;-62
2023/04/08 09:36:53;;;;;;;1.23;1.07;;;24.50;42.60;;;;;;5084345;27;86900;-63
2023/04/08 09:39:21;;;;;;;1.07;0.97;;;24.50;42.70;;;;;;5084454;27;86335;-62
2023/04/08 09:41:50;;;;;;;1.17;0.90;;;24.40;42.60;;;;;;5083805;27;89226;-62
2023/04/08 09:44:20;;;;;;;1.77;1.17;;;24.40;42.60;;;;;;5083950;27;88898;-63
2023/04/08 09:46:56;;;;;;;1.33;0.97;;;24.40;42.70;;;;;;5083320;27;88033;-62
2023/04/08 09:49:26;;;;;;;1.23;0.90;;;24.40;42.70;;;;;;5083894;27;86987;-62
2023/04/08 09:51:59;;;;;;;1.23;1.13;;;24.30;42.60;;;;;;5083376;27;88104;-62
2023/04/08 09:54:32;;;;;;;1.50;1.20;;;24.30;42.70;;;;;;5082805;27;88791;-62
2023/04/08 09:57:03;;;;;;;0.90;0.90;;;24.30;42.70;;;;;;5083298;27;87028;-62
2023/04/08 09:59:33;;;;;;;1.00;1.00;;;24.30;42.70;;;;;;5084470;27;87037;-62
2023/04/08 10:02:03;;;;;;;1.17;1.07;;;24.30;42.70;;;;;;5083964;27;88987;-62
2023/04/08 10:04:31;;;;;;;2.37;1.37;;;24.30;42.70;;;;;;5083359;27;87677;-62
2023/04/08 10:07:03;;;;;;;1.27;1.03;;;24.30;42.70;;;;;;5083327;27;86955;-62
2023/04/08 10:09:31;;;;;;;1.20;1.00;;;24.30;42.70;;;;;;5083634;27;87019;-62
2023/04/08 10:11:59;;;;;;;1.97;1.50;;;24.30;42.70;;;;;;5083021;27;90130;-62
2023/04/08 10:14:27;;;;;;;2.00;1.73;;;24.30;42.70;;;;;;5083846;27;89744;-62
2023/04/08 10:17:27;;;;;;;2.50;1.40;;;24.30;42.70;;;;;;5083262;27;86861;-62
2023/04/08 10:19:57;;;;;;;1.23;1.13;;;24.20;42.70;;;;;;5083688;27;87088;-62
2023/04/08 10:22:50;;;;;;;1.20;1.10;;;24.30;42.70;;;;;;5083481;27;89089;-62
2023/04/08 10:25:31;;;;;;;1.60;1.50;;;24.20;42.70;;;;;;5083482;27;88916;-62
2023/04/08 10:28:02;;;;;;;2.83;1.00;;;24.20;42.70;;;;;;5083684;27;86793;-62
2023/04/08 10:30:40;;;;;;;1.67;1.30;;;24.20;42.60;;;;;;5083622;27;87714;-64
2023/04/08 10:33:12;;;;;;;1.37;0.83;;;24.20;42.80;;;;;;5082810;27;89362;-62
2023/04/08 10:35:42;;;;;;;1.47;1.10;;;24.20;42.70;;;;;;5082987;27;88650;-62
2023/04/08 10:38:11;;;;;;;3.20;1.70;;;24.20;42.70;;;;;;5082747;27;88067;-62
2023/04/08 10:40:40;;;;;;;2.07;1.37;;;24.20;42.70;;;;;;5083444;27;87099;-62
2023/04/08 10:43:08;;;;;;;1.57;1.20;;;24.20;42.70;;;;;;5083454;27;89114;-62
2023/04/08 10:45:36;;;;;;;1.40;1.20;;;24.20;42.70;;;;;;5083202;27;88235;-62
2023/04/08 10:48:18;;;;;;;1.30;1.20;;;24.20;42.70;;;;;;5083497;27;86921;-62
2023/04/08 10:50:53;;;;;;;1.33;0.90;;;24.10;42.70;;;;;;5083302;27;87108;-62
2023/04/08 10:53:28;;;;;;;3.23;1.53;;;24.10;42.60;;;;;;5083506;27;89584;-62
2023/04/08 10:56:03;;;;;;;1.37;1.10;;;24.10;42.60;;;;;;5083703;27;88863;-62
2023/04/08 10:58:31;;;;;;;0.93;0.93;;;24.20;42.70;;;;;;5083484;27;87014;-62
2023/04/08 11:01:03;;;;;;;1.60;1.40;;;24.10;42.60;;;;;;5083140;27;86888;-62
2023/04/08 11:03:34;;;;;;;1.47;1.00;;;24.10;42.60;;;;;;5082167;27;90011;-62
2023/04/08 11:06:03;;;;;;;1.40;1.30;;;24.10;42.60;;;;;;5082331;27;89745;-62
2023/04/08 11:08:31;;;;;;;0.97;0.93;;;24.10;42.60;;;;;;5082822;27;87109;-61
2023/04/08 11:11:00;;;;;;;1.47;1.23;;;24.10;42.60;;;;;;5083159;27;87129;-64
2023/04/08 11:13:28;;;;;;;0.77;0.77;;;24.10;42.60;;;;;;5082921;27;88654;-62
2023/04/08 11:15:56;;;;;;;1.20;1.13;;;24.10;42.60;;;;;;5082720;27;89155;-61
2023/04/08 11:18:24;;;;;;;1.47;1.30;;;24.10;42.60;;;;;;5083058;27;86950;-62
2023/04/08 11:20:53;;;;;;;1.40;0.90;;;24.10;42.60;;;;;;5083360;27;86488;-61
2023/04/08 11:23:21;;;;;;;1.47;1.20;;;24.10;42.70;;;;;;5082661;27;88991;-61
2023/04/08 11:25:50;;;;;;;1.17;1.03;;;24.20;42.70;;;;;;5082297;27;88737;-62
2023/04/08 11:28:18;;;;;;;1.57;1.47;;;24.10;42.60;;;;;;5081738;27;88041;-61
2023/04/08 11:30:47;;;;;;;1.20;1.10;;;24.10;42.60;;;;;;5082504;27;87061;-62
2023/04/08 11:33:15;;;;;;;2.03;1.40;;;24.10;42.60;;;;;;5081682;27;89120;-62
2023/04/08 11:35:43;;;;;;;1.53;1.30;;;24.10;42.60;;;;;;5081854;27;91407;-63
2023/04/08 11:38:13;;;;;;;0.80;0.80;;;24.10;42.60;;;;;;5082219;27;86756;-63
2023/04/08 11:40:41;;;;;;;1.63;1.00;;;24.10;42.60;;;;;;5082273;27;87035;-63
2023/04/08 11:43:14;;;;;;;1.07;1.00;;;24.10;42.60;;;;;;5082122;27;89053;-63
2023/04/08 11:45:42;;;;;;;2.93;1.23;;;24.10;42.60;;;;;;5082103;27;89187;-63
2023/04/08 11:48:10;;;;;;;1.30;1.20;;;24.10;42.60;;;;;;5082359;27;86953;-63
2023/04/08 11:50:38;;;;;;;1.13;1.03;;;24.10;42.60;;;;;;5082582;27;87022;-63
2023/04/08 11:53:18;;;;;;;1.33;0.87;;;24.10;42.70;;;;;;5081716;27;90143;-63
2023/04/08 11:55:46;;;;;;;1.00;0.83;;;24.10;43.30;;;;;;5082372;27;89873;-63
2023/04/08 11:58:14;;;;;;;1.00;0.80;;;24.10;42.90;;;;;;5082581;27;86938;-63
2023/04/08 12:00:42;;;;;;;1.20;1.10;;;24.10;42.60;;;;;;5082586;27;87032;-63
2023/04/08 12:03:11;;;;;;;3.20;1.20;;;24.10;42.60;;;;;;5082263;27;89322;-63
2023/04/08 12:05:39;;;;;;;1.20;1.10;;;24.10;42.60;;;;;;5081819;27;88997;-62
2023/04/08 12:08:07;;;;;;;1.67;1.20;;;24.10;42.60;;;;;;5081633;27;87152;-63
2023/04/08 12:10:36;;;;;;;1.70;1.10;;;24.10;42.60;;;;;;5082057;27;86165;-63
2023/04/08 12:13:04;;;;;;;1.27;1.07;;;24.10;42.60;;;;;;5082486;27;89233;-63
2023/04/08 12:15:32;;;;;;;1.30;1.20;;;24.10;42.60;;;;;;5082279;27;88764;-63
2023/04/08 12:18:00;;;;;;;1.20;1.00;;;24.10;42.60;;;;;;5082159;27;87978;-61
2023/04/08 12:20:28;;;;;;;1.00;0.90;;;24.10;42.60;;;;;;5082338;27;87044;-61
2023/04/08 12:22:56;;;;;;;1.33;1.20;;;24.10;42.60;;;;;;5081946;27;89104;-62
2023/04/08 12:25:24;;;;;;;1.87;1.37;;;24.10;42.60;;;;;;5082095;27;88641;-61
2023/04/08 12:27:54;;;;;;;1.23;1.10;;;24.10;42.60;;;;;;5081922;27;87026;-64
2023/04/08 12:30:22;;;;;;;0.87;0.80;;;24.10;42.60;;;;;;5081807;27;87032;-64
2023/04/08 12:32:50;;;;;;;1.13;1.00;;;24.10;42.60;;;;;;5081691;27;89178;-61
2023/04/08 12:35:18;;;;;;;1.17;1.07;;;24.10;42.60;;;;;;5081519;27;89031;-61
2023/04/08 12:37:46;;;;;;;0.90;0.87;;;24.10;42.60;;;;;;5081598;27;87077;-61
2023/04/08 12:40:14;;;;;;;1.10;1.00;;;24.10;42.60;;;;;;5081403;27;86926;-62
2023/04/08 12:42:42;;;;;;;0.90;0.90;;;24.10;42.60;;;;;;5080768;27;89745;-61
2023/04/08 12:45:11;;;;;;;0.90;0.90;;;24.10;42.60;;;;;;5084197;27;89968;-62
2023/04/08 12:47:39;;;;;;;0.70;0.70;;;24.10;42.60;;;;;;5085725;27;86897;-62
2023/04/08 12:50:09;;;;;;;0.90;0.90;;;24.10;42.60;;;;;;5085317;27;86891;-62
2023/04/08 12:52:37;;;;;;;1.23;1.03;;;24.10;42.60;;;;;;5085441;27;91283;-62
2023/04/08 12:55:06;;;;;;;0.87;0.87;;;24.10;42.60;;;;;;5085141;27;89617;-62
2023/04/08 12:57:34;;;;;;;0.73;0.73;;;24.10;42.60;;;;;;5085529;27;87111;-62